Time;durP1;ratioP1;P1;durP2;ratioP2;P2;SDS_P1;SDS_P2;PMS_P1;PMS_P2;Temp;Humidity;BMP_temperature;BMP_pressure;BME280_temperature;BME280_humidity;BME280_pressure;Samples;Min_cycle;Max_cycle;Signal;HPM_P1;HPM_P2
2023/06/01 00:02:27;;;;;;;1.90;1.80;;;14.10;99.90;;;;;;5150858;28;20399;-68
2023/06/01 00:04:58;;;;;;;1.73;1.63;;;14.20;1.00;;;;;;5108840;28;20060;-68
2023/06/01 00:07:34;;;;;;;1.88;1.70;;;14.20;1.00;;;;;;5151085;28;20034;-70
2023/06/01 00:10:06;;;;;;;1.85;1.65;;;14.20;1.00;;;;;;5119568;28;20034;-68
2023/06/01 00:12:38;;;;;;;2.03;1.80;;;14.10;1.00;;;;;;5147363;28;20026;-68
2023/06/01 00:15:09;;;;;;;2.00;1.83;;;14.10;93.30;;;;;;5151605;28;20057;-71
2023/06/01 00:17:43;;;;;;;2.30;2.10;;;14.00;99.90;;;;;;5153100;28;20056;-69
2023/06/01 00:20:14;;;;;;;2.28;2.08;;;14.00;99.90;;;;;;5134539;28;20323;-69
2023/06/01 00:22:46;;;;;;;1.98;1.80;;;13.90;1.00;;;;;;5117703;28;20061;-69
2023/06/01 00:25:17;;;;;;;1.88;1.38;;;13.90;1.00;;;;;;5156323;28;20053;-71
2023/06/01 00:27:53;;;;;;;2.17;1.88;;;13.80;99.90;;;;;;5196427;28;20030;-69
2023/06/01 00:30:32;;;;;;;1.30;1.20;;;13.70;1.00;;;;;;5148283;28;20056;-68
2023/06/01 00:33:06;;;;;;;2.08;1.45;;;13.50;99.90;;;;;;5153059;28;20041;-69
2023/06/01 00:35:40;;;;;;;1.38;1.27;;;13.30;1.00;;;;;;5135509;28;20234;-71
2023/06/01 00:38:14;;;;;;;;;;;13.20;1.00;;;;;;5166814;28;20026;-68
2023/06/01 00:40:45;;;;;;;1.50;1.40;;;13.10;99.90;;;;;;5149755;28;19902;-68
2023/06/01 00:43:17;;;;;;;4.20;2.25;;;13.00;99.90;;;;;;5113467;28;20042;-68
2023/06/01 00:45:51;;;;;;;2.60;1.60;;;13.00;99.90;;;;;;5130890;28;20026;-68
2023/06/01 00:48:24;;;;;;;1.55;1.42;;;13.00;1.00;;;;;;5126101;28;20033;-68
2023/06/01 00:50:58;;;;;;;1.58;1.48;;;13.00;99.90;;;;;;5118774;28;20452;-67
2023/06/01 00:53:33;;;;;;;1.95;1.77;;;13.10;52.90;;;;;;5202766;28;20107;-69
2023/06/01 00:56:11;;;;;;;1.75;1.45;;;13.20;1.00;;;;;;5115867;28;20038;-68
2023/06/01 00:58:43;;;;;;;2.15;1.90;;;13.20;1.00;;;;;;5166161;28;20029;-68
2023/06/01 01:01:22;;;;;;;1.80;1.70;;;13.20;80.60;;;;;;5165392;23;20042;-69
2023/06/01 01:04:00;;;;;;;1.95;1.67;;;13.30;1.00;;;;;;5224193;22;20054;-67
2023/06/01 01:06:45;;;;;;;2.08;1.83;;;13.30;1.00;;;;;;5132505;28;20567;-69
2023/06/01 01:09:32;;;;;;;1.58;1.48;;;13.30;1.00;;;;;;5150645;28;20022;-69
2023/06/01 01:12:24;;;;;;;2.28;1.60;;;13.30;1.00;;;;;;5153067;28;20460;-70
2023/06/01 01:15:08;;;;;;;1.67;1.58;;;13.30;1.00;;;;;;5108414;29;20035;-70
2023/06/01 01:17:42;;;;;;;2.00;1.73;;;13.20;1.00;;;;;;5124291;28;20035;-68
2023/06/01 01:20:28;;;;;;;1.70;1.60;;;13.20;99.90;;;;;;5111117;29;20208;-67
2023/06/01 01:23:16;;;;;;;1.42;1.33;;;13.10;1.00;;;;;;5109348;29;20043;-67
2023/06/01 01:26:03;;;;;;;1.70;1.55;;;13.00;99.90;;;;;;5125307;28;20041;-69
2023/06/01 01:28:49;;;;;;;7.80;2.20;;;13.00;99.90;;;;;;5128631;28;20038;-67
2023/06/01 01:31:26;;;;;;;1.63;1.52;;;12.90;1.00;;;;;;5109963;28;20049;-69
2023/06/01 01:33:58;;;;;;;3.30;2.97;;;12.90;1.00;;;;;;5142337;28;20035;-67
2023/06/01 01:36:33;;;;;;;1.52;1.42;;;12.80;1.00;;;;;;5196078;28;20040;-68
2023/06/01 01:39:10;;;;;;;2.33;1.50;;;12.80;1.00;;;;;;5181878;28;20031;-69
2023/06/01 01:41:42;;;;;;;1.73;1.63;;;12.90;1.00;;;;;;5127742;28;20047;-69
2023/06/01 01:44:14;;;;;;;3.63;1.73;;;12.90;99.90;;;;;;5144447;28;20034;-68
2023/06/01 01:47:09;;;;;;;2.58;1.63;;;12.90;99.90;;;;;;5141305;28;20045;-69
2023/06/01 01:49:47;;;;;;;2.35;1.70;;;12.90;99.90;;;;;;5145566;28;20035;-70
2023/06/01 01:52:42;;;;;;;5.50;1.65;;;12.90;99.90;;;;;;5128251;28;20043;-70
2023/06/01 01:55:18;;;;;;;2.72;1.95;;;12.90;99.90;;;;;;5126657;28;20049;-68
2023/06/01 01:57:55;;;;;;;2.85;2.17;;;12.80;1.00;;;;;;5144232;28;20716;-67
2023/06/01 02:00:30;;;;;;;2.40;1.75;;;12.70;1.00;;;;;;5119098;28;20053;-68
2023/06/01 02:03:02;;;;;;;2.25;2.05;;;12.70;1.00;;;;;;5132552;28;20602;-69
2023/06/01 02:05:35;;;;;;;2.50;2.30;;;12.60;1.00;;;;;;5134143;28;20066;-68
2023/06/01 02:08:07;;;;;;;2.83;1.98;;;12.50;1.00;;;;;;5093342;28;20340;-67
2023/06/01 02:10:43;;;;;;;2.42;1.70;;;12.40;1.00;;;;;;5118056;28;20036;-67
2023/06/01 02:13:14;;;;;;;3.38;1.65;;;12.40;1.00;;;;;;5107825;29;20032;-69
2023/06/01 02:15:46;;;;;;;4.28;1.60;;;12.50;1.00;;;;;;5104403;29;20407;-69
2023/06/01 02:18:21;;;;;;;3.78;1.60;;;12.60;1.00;;;;;;5094302;29;20050;-70
2023/06/01 02:20:56;;;;;;;2.25;2.05;;;12.60;1.00;;;;;;5109054;29;20571;-68
2023/06/01 02:23:39;;;;;;;7.10;1.83;;;12.70;1.00;;;;;;5108124;29;20050;-70
2023/06/01 02:26:10;;;;;;;1.50;1.40;;;12.60;1.00;;;;;;5094153;28;20039;-68
2023/06/01 02:28:44;;;;;;;3.30;2.40;;;12.50;1.00;;;;;;5214254;28;20558;-68
2023/06/01 02:31:18;;;;;;;2.90;2.13;;;12.50;1.00;;;;;;5231515;28;20113;-67
2023/06/01 02:33:50;;;;;;;3.25;1.65;;;12.50;1.00;;;;;;5232964;28;20039;-68
2023/06/01 02:36:23;;;;;;;4.85;2.25;;;12.40;1.00;;;;;;5217153;28;20039;-69
2023/06/01 02:38:58;;;;;;;2.65;1.80;;;12.40;1.00;;;;;;5220553;28;20356;-68
2023/06/01 02:41:29;;;;;;;2.10;1.83;;;12.30;99.90;;;;;;5219124;28;20037;-69
2023/06/01 02:44:00;;;;;;;2.55;2.00;;;12.20;99.90;;;;;;5220032;28;20035;-67
2023/06/01 02:46:34;;;;;;;1.67;1.45;;;12.30;87.60;;;;;;5229118;28;20029;-69
2023/06/01 02:49:06;;;;;;;1.67;1.40;;;12.40;99.90;;;;;;5232354;28;20037;-69
2023/06/01 02:51:37;;;;;;;4.93;2.00;;;12.30;99.90;;;;;;5215750;28;20051;-67
2023/06/01 02:54:12;;;;;;;3.97;1.75;;;12.30;99.90;;;;;;5120661;28;20027;-68
2023/06/01 02:56:45;;;;;;;2.45;2.20;;;12.10;99.90;;;;;;5144877;28;20049;-69
2023/06/01 02:59:16;;;;;;;1.93;1.63;;;12.10;99.90;;;;;;5147807;28;20039;-68
2023/06/01 03:01:49;;;;;;;1.90;1.70;;;12.10;99.90;;;;;;5140368;28;20349;-70
2023/06/01 03:04:23;;;;;;;4.60;2.10;;;12.00;99.90;;;;;;5122530;28;20049;-68
2023/06/01 03:06:58;;;;;;;2.88;2.20;;;12.00;99.90;;;;;;5129137;28;20048;-68
2023/06/01 03:09:35;;;;;;;2.45;1.88;;;11.90;1.00;;;;;;5093443;29;20375;-69
2023/06/01 03:12:07;;;;;;;2.22;1.80;;;11.90;1.00;;;;;;5149942;28;20043;-68
2023/06/01 03:14:42;;;;;;;2.25;2.05;;;11.80;1.00;;;;;;5149012;28;20334;-68
2023/06/01 03:17:14;;;;;;;1.33;1.25;;;11.80;1.00;;;;;;5145974;28;20236;-67
2023/06/01 03:19:47;;;;;;;2.45;1.88;;;11.80;1.00;;;;;;5133205;28;20035;-67
2023/06/01 03:22:18;;;;;;;1.58;1.48;;;11.90;1.00;;;;;;5116877;28;20277;-70
2023/06/01 03:24:49;;;;;;;2.28;2.08;;;11.90;1.00;;;;;;5132466;28;20601;-68
2023/06/01 03:27:21;;;;;;;2.15;1.60;;;12.10;1.00;;;;;;5126063;28;20053;-68
2023/06/01 03:29:53;;;;;;;2.28;1.80;;;12.20;99.90;;;;;;5127298;28;20031;-67
2023/06/01 03:32:28;;;;;;;1.95;1.70;;;12.20;99.90;;;;;;5116374;28;20039;-68
2023/06/01 03:34:59;;;;;;;2.22;1.95;;;12.30;99.90;;;;;;5111951;28;20049;-70
2023/06/01 03:37:30;;;;;;;2.85;1.35;;;12.40;99.90;;;;;;5094732;28;20031;-68
2023/06/01 03:40:10;;;;;;;1.80;1.70;;;12.40;99.90;;;;;;5112400;29;20038;-69
2023/06/01 03:42:53;;;;;;;3.15;2.05;;;12.50;99.90;;;;;;5141916;28;20035;-68
2023/06/01 03:45:24;;;;;;;2.42;2.05;;;12.60;99.90;;;;;;5110694;28;20049;-68
2023/06/01 03:47:58;;;;;;;2.75;1.58;;;12.80;99.90;;;;;;5159839;28;20043;-69
2023/06/01 03:50:31;;;;;;;2.75;2.17;;;12.90;99.90;;;;;;5094976;29;20062;-69
2023/06/01 03:53:02;;;;;;;2.22;1.65;;;13.00;9.40;;;;;;5185996;28;20044;-70
2023/06/01 03:55:35;;;;;;;2.47;1.42;;;13.20;1.00;;;;;;5216251;28;20035;-70
2023/06/01 03:58:09;;;;;;;1.52;1.42;;;13.50;1.00;;;;;;5158154;28;20434;-67
2023/06/01 04:00:41;;;;;;;3.53;2.20;;;13.80;1.00;;;;;;5124212;28;20041;-70
2023/06/01 04:03:21;;;;;;;2.35;1.73;;;14.00;99.90;;;;;;5176247;28;20048;-67
2023/06/01 04:05:58;;;;;;;2.40;1.70;;;14.10;99.90;;;;;;5121899;28;20049;-68
2023/06/01 04:08:30;;;;;;;2.00;1.48;;;14.20;84.10;;;;;;5110022;28;20035;-69
2023/06/01 04:11:01;;;;;;;1.88;1.42;;;14.30;71.90;;;;;;5110998;28;20046;-69
2023/06/01 04:13:33;;;;;;;1.88;1.52;;;14.50;32.50;;;;;;5127475;28;20499;-70
2023/06/01 04:16:06;;;;;;;2.08;1.92;;;14.80;1.00;;;;;;5228605;28;20040;-68
2023/06/01 04:18:41;;;;;;;2.20;1.90;;;15.10;1.00;;;;;;5208032;28;20045;-69
2023/06/01 04:21:16;;;;;;;1.70;1.50;;;15.60;99.90;;;;;;5159597;28;20051;-68
2023/06/01 04:23:50;;;;;;;2.33;1.80;;;16.00;99.90;;;;;;5189376;28;20053;-68
2023/06/01 04:26:27;;;;;;;1.38;1.27;;;16.30;1.00;;;;;;5109841;28;20039;-68
2023/06/01 04:28:59;;;;;;;2.17;1.88;;;16.50;1.00;;;;;;5110529;28;20089;-70
2023/06/01 04:31:32;;;;;;;4.97;1.70;;;16.60;1.00;;;;;;5123062;28;20041;-70
2023/06/01 04:34:05;;;;;;;2.83;1.85;;;16.70;99.90;;;;;;5124545;28;20500;-69
2023/06/01 04:36:39;;;;;;;1.95;1.70;;;16.80;99.90;;;;;;5140588;28;20041;-69
2023/06/01 04:39:10;;;;;;;2.47;1.80;;;16.90;99.90;;;;;;5092715;28;20045;-67
2023/06/01 04:41:41;;;;;;;1.50;1.40;;;16.90;16.90;;;;;;5095393;28;20031;-68
2023/06/01 04:44:16;;;;;;;3.17;1.90;;;17.20;1.00;;;;;;5147221;28;20031;-69
2023/06/01 04:46:49;;;;;;;;;;;17.30;1.00;;;;;;5106680;28;20049;-69
2023/06/01 04:49:20;;;;;;;2.55;1.73;;;17.40;1.00;;;;;;5133624;28;19902;-69
2023/06/01 04:51:52;;;;;;;1.90;1.70;;;17.40;1.00;;;;;;5109376;28;20039;-68
2023/06/01 04:54:26;;;;;;;1.92;1.73;;;17.50;1.00;;;;;;5109311;29;20020;-69
2023/06/01 04:56:58;;;;;;;2.03;1.80;;;17.70;1.00;;;;;;5089028;28;20020;-68
2023/06/01 04:59:30;;;;;;;4.15;1.67;;;17.80;1.00;;;;;;5124631;28;20035;-68
2023/06/01 05:02:05;;;;;;;2.25;1.60;;;18.00;1.00;;;;;;5132380;28;20041;-70
2023/06/01 05:04:39;;;;;;;2.90;1.67;;;18.00;99.90;;;;;;5119939;28;20035;-68
2023/06/01 05:07:13;;;;;;;3.05;2.08;;;18.30;99.90;;;;;;5129750;28;20489;-69
2023/06/01 05:09:44;;;;;;;3.05;1.63;;;18.60;99.90;;;;;;5138254;28;20035;-69
2023/06/01 05:12:22;;;;;;;1.60;1.15;;;19.00;1.00;;;;;;5126259;28;20035;-69
2023/06/01 05:14:53;;;;;;;1.40;1.30;;;19.20;1.00;;;;;;5120852;28;20041;-68
2023/06/01 05:17:29;;;;;;;5.68;1.80;;;19.50;1.00;;;;;;5160281;28;20074;-68
2023/06/01 05:20:03;;;;;;;2.10;1.50;;;19.40;99.90;;;;;;5189828;28;20047;-69
2023/06/01 05:22:36;;;;;;;2.58;1.50;;;19.10;99.90;;;;;;5111047;29;20543;-69
2023/06/01 05:25:07;;;;;;;2.50;1.50;;;19.10;1.00;;;;;;5092399;29;20049;-68
2023/06/01 05:27:39;;;;;;;2.08;1.60;;;19.50;99.90;;;;;;5069715;29;20046;-71
2023/06/01 05:30:11;;;;;;;3.63;1.55;;;20.00;99.90;;;;;;5089896;29;20020;-69
2023/06/01 05:32:42;;;;;;;3.67;1.63;;;20.60;99.90;;;;;;5087948;29;20036;-68
2023/06/01 05:35:20;;;;;;;1.98;1.35;;;21.10;1.00;;;;;;5096256;28;20478;-69
2023/06/01 05:37:52;;;;;;;1.95;1.48;;;21.30;1.00;;;;;;5126151;28;20046;-69
2023/06/01 05:40:23;;;;;;;2.90;1.98;;;21.50;1.00;;;;;;5123991;28;20047;-67
2023/06/01 05:42:59;;;;;;;2.95;1.48;;;21.50;1.00;;;;;;5169496;28;20032;-69
2023/06/01 05:45:30;;;;;;;2.67;1.25;;;21.60;1.00;;;;;;5127930;28;20036;-68
2023/06/01 05:48:02;;;;;;;1.85;1.33;;;21.90;99.90;;;;;;5130943;28;20403;-70
2023/06/01 05:50:36;;;;;;;1.77;1.67;;;22.10;99.90;;;;;;5148932;28;20388;-69
2023/06/01 05:53:09;;;;;;;3.13;1.73;;;22.20;99.90;;;;;;5095817;28;20049;-69
2023/06/01 05:55:43;;;;;;;2.65;1.75;;;22.50;99.90;;;;;;5186453;28;20024;-71
2023/06/01 05:58:15;;;;;;;1.80;1.20;;;22.70;48.40;;;;;;5145804;28;20039;-69
2023/06/01 06:00:47;;;;;;;1.80;1.42;;;22.80;37.80;;;;;;5136060;28;20035;-70
2023/06/01 06:03:18;;;;;;;1.83;1.40;;;23.20;1.00;;;;;;5133472;28;20252;-70
2023/06/01 06:05:52;;;;;;;1.92;1.27;;;23.40;1.00;;;;;;5116049;28;20067;-70
2023/06/01 06:08:29;;;;;;;2.63;0.90;;;23.60;1.00;;;;;;5102801;28;20041;-69
2023/06/01 06:11:00;;;;;;;1.63;1.20;;;23.90;1.00;;;;;;5119794;28;20050;-70
2023/06/01 06:13:32;;;;;;;3.95;1.30;;;23.80;1.00;;;;;;5123447;28;20043;-69
2023/06/01 06:16:06;;;;;;;1.20;1.10;;;24.00;1.00;;;;;;5107510;28;20456;-70
2023/06/01 06:18:38;;;;;;;2.92;1.55;;;23.90;99.90;;;;;;5107439;28;20054;-70
2023/06/01 06:21:09;;;;;;;4.28;1.52;;;23.40;99.90;;;;;;5124889;28;20356;-68
2023/06/01 06:23:48;;;;;;;1.67;1.15;;;23.10;99.90;;;;;;5123569;28;21096;-69
2023/06/01 06:26:20;;;;;;;1.65;1.10;;;23.40;99.90;;;;;;5122982;28;20049;-69
2023/06/01 06:28:51;;;;;;;1.60;1.35;;;23.90;99.90;;;;;;5106569;28;20031;-69
2023/06/01 06:31:23;;;;;;;2.08;1.30;;;24.40;99.90;;;;;;5105069;28;20979;-69
2023/06/01 06:33:57;;;;;;;1.00;0.90;;;24.60;99.90;;;;;;5107610;28;20050;-68
2023/06/01 06:36:31;;;;;;;2.10;1.27;;;24.90;99.90;;;;;;5118560;28;20047;-69
2023/06/01 06:39:02;;;;;;;;;;;25.10;99.90;;;;;;5119451;28;20181;-69
2023/06/01 06:41:39;;;;;;;1.50;1.20;;;25.30;99.90;;;;;;5104607;28;20506;-70
2023/06/01 06:44:18;;;;;;;6.47;1.50;;;25.70;99.90;;;;;;5104692;28;20962;-69
2023/06/01 06:46:51;;;;;;;5.32;1.52;;;26.10;99.90;;;;;;5119567;28;20047;-70
2023/06/01 06:49:23;;;;;;;1.33;1.10;;;26.40;99.90;;;;;;5110125;28;20039;-68
2023/06/01 06:51:55;;;;;;;1.20;1.10;;;26.50;99.90;;;;;;5112162;28;20023;-69
2023/06/01 06:54:29;;;;;;;3.08;1.20;;;26.20;99.90;;;;;;5137120;28;20037;-69
2023/06/01 06:57:03;;;;;;;1.38;1.20;;;26.10;99.90;;;;;;5134862;28;20031;-69
2023/06/01 06:59:35;;;;;;;2.83;1.27;;;26.00;99.90;;;;;;5125118;28;20033;-69
2023/06/01 07:02:11;;;;;;;1.80;1.42;;;26.00;99.90;;;;;;5115466;28;20477;-70
2023/06/01 07:04:43;;;;;;;1.13;0.90;;;26.20;99.90;;;;;;5111884;28;20439;-68
2023/06/01 07:07:14;;;;;;;2.75;1.35;;;26.10;99.90;;;;;;5106578;29;20398;-68
2023/06/01 07:09:46;;;;;;;1.35;1.20;;;26.30;99.90;;;;;;5110861;28;20027;-69
2023/06/01 07:12:19;;;;;;;1.45;1.17;;;26.20;99.90;;;;;;5117021;28;20029;-69
2023/06/01 07:14:51;;;;;;;1.00;1.00;;;26.30;99.90;;;;;;5147913;28;20035;-71
2023/06/01 07:17:26;;;;;;;3.63;1.10;;;26.70;99.90;;;;;;5095720;28;20053;-69
2023/06/01 07:20:00;;;;;;;2.10;1.40;;;27.00;99.90;;;;;;5104637;28;20054;-68
2023/06/01 07:22:34;;;;;;;4.32;1.52;;;27.30;99.90;;;;;;5120683;28;20037;-69
2023/06/01 07:25:08;;;;;;;4.32;1.50;;;27.10;99.90;;;;;;5119339;28;20616;-66
2023/06/01 07:27:42;;;;;;;1.77;1.30;;;26.60;99.90;;;;;;5112030;28;20040;-68
2023/06/01 07:30:14;;;;;;;1.95;1.73;;;26.60;99.90;;;;;;5112045;28;20031;-68
2023/06/01 07:32:45;;;;;;;1.70;1.30;;;26.30;92.30;;;;;;5091875;28;20039;-70
2023/06/01 07:35:17;;;;;;;1.65;1.27;;;25.60;1.00;;;;;;5108698;28;20042;-69
2023/06/01 07:37:49;;;;;;;1.65;1.50;;;25.70;99.90;;;;;;5105371;28;20042;-70
2023/06/01 07:40:21;;;;;;;2.95;1.50;;;26.60;99.90;;;;;;5103452;28;20035;-68
2023/06/01 07:42:53;;;;;;;2.50;1.40;;;26.70;92.50;;;;;;5107478;28;20311;-69
2023/06/01 07:45:24;;;;;;;3.25;1.88;;;27.00;51.30;;;;;;5106075;28;20035;-69
2023/06/01 07:47:58;;;;;;;3.10;1.63;;;27.10;1.00;;;;;;5124396;28;20050;-68
2023/06/01 07:50:30;;;;;;;2.35;1.65;;;27.00;1.00;;;;;;5107175;28;20053;-69
2023/06/01 07:53:02;;;;;;;3.80;1.38;;;26.80;1.00;;;;;;5111063;28;20046;-69
2023/06/01 07:55:36;;;;;;;2.33;1.83;;;26.60;1.00;;;;;;5109836;28;20928;-70
2023/06/01 07:58:07;;;;;;;2.63;1.52;;;26.80;1.00;;;;;;5123510;28;20038;-69
2023/06/01 08:00:41;;;;;;;4.22;1.55;;;27.20;25.30;;;;;;5109842;28;20042;-69
2023/06/01 08:03:12;;;;;;;1.63;1.48;;;27.70;1.00;;;;;;5085638;28;20095;-69
2023/06/01 08:05:44;;;;;;;1.55;1.23;;;28.00;3.40;;;;;;5085098;28;20066;-69
2023/06/01 08:08:15;;;;;;;1.38;1.23;;;28.60;20.40;;;;;;5089566;28;20027;-68
2023/06/01 08:10:47;;;;;;;2.17;1.52;;;29.20;66.50;;;;;;5116295;28;20061;-71
2023/06/01 08:13:21;;;;;;;5.75;1.42;;;28.50;1.00;;;;;;5101651;28;20046;-71
2023/06/01 08:15:53;;;;;;;2.35;1.30;;;27.80;1.00;;;;;;5096325;28;20130;-70
2023/06/01 08:18:24;;;;;;;2.58;1.67;;;27.90;1.00;;;;;;5167113;28;20043;-68
2023/06/01 08:21:00;;;;;;;2.95;1.73;;;27.80;1.00;;;;;;5101005;28;20054;-69
2023/06/01 08:23:32;;;;;;;2.40;1.83;;;27.10;1.00;;;;;;5100298;28;20256;-70
2023/06/01 08:26:06;;;;;;;1.80;1.33;;;26.50;1.00;;;;;;5113430;28;20054;-70
2023/06/01 08:28:39;;;;;;;4.75;1.73;;;26.20;1.00;;;;;;5102249;28;20368;-68
2023/06/01 08:31:11;;;;;;;1.53;1.30;;;25.60;1.00;;;;;;5097122;28;20046;-68
2023/06/01 08:33:42;;;;;;;3.75;1.33;;;25.30;1.00;;;;;;5111739;28;20046;-69
2023/06/01 08:36:16;;;;;;;3.05;1.55;;;26.00;1.00;;;;;;5114959;28;20309;-68
2023/06/01 08:38:50;;;;;;;7.50;2.00;;;27.00;1.00;;;;;;5101743;28;20483;-69
2023/06/01 08:41:39;;;;;;;2.63;1.55;;;27.40;10.80;;;;;;5098077;28;20054;-70
2023/06/01 08:44:14;;;;;;;3.38;1.73;;;27.50;1.00;;;;;;5116535;28;20039;-69
2023/06/01 08:46:46;;;;;;;1.60;1.33;;;27.50;1.00;;;;;;5130392;28;20057;-68
2023/06/01 08:49:24;;;;;;;3.42;1.77;;;28.10;1.50;;;;;;5129194;28;20523;-69
2023/06/01 08:52:02;;;;;;;2.35;1.40;;;28.30;1.00;;;;;;5101137;28;20058;-69
2023/06/01 08:54:33;;;;;;;1.92;1.08;;;28.50;1.00;;;;;;5124104;28;20038;-70
2023/06/01 08:57:07;;;;;;;2.08;1.58;;;28.50;1.00;;;;;;5125798;28;20073;-69
2023/06/01 08:59:41;;;;;;;3.50;1.35;;;28.70;17.10;;;;;;5124311;28;20518;-69
2023/06/01 09:02:15;;;;;;;3.25;1.38;;;28.70;1.00;;;;;;5120004;28;20035;-68
2023/06/01 09:04:46;;;;;;;2.55;1.42;;;28.60;1.00;;;;;;5103897;28;20046;-70
2023/06/01 09:07:20;;;;;;;1.20;1.08;;;28.90;1.00;;;;;;5098655;28;20035;-70
2023/06/01 09:09:52;;;;;;;2.45;1.20;;;29.30;1.00;;;;;;5109007;28;20042;-70
2023/06/01 09:12:25;;;;;;;1.58;1.05;;;29.40;1.00;;;;;;5125121;28;20042;-69
2023/06/01 09:15:17;;;;;;;3.75;1.30;;;29.80;1.00;;;;;;5122925;28;20049;-69
2023/06/01 09:17:51;;;;;;;3.15;2.10;;;29.70;1.00;;;;;;5107598;28;20045;-70
2023/06/01 09:20:34;;;;;;;2.92;1.33;;;30.70;1.00;;;;;;5121080;28;20530;-69
2023/06/01 09:23:05;;;;;;;3.65;2.08;;;30.80;1.00;;;;;;5108157;28;20039;-70
2023/06/01 09:25:36;;;;;;;2.85;1.45;;;30.70;1.00;;;;;;5124463;28;20484;-70
2023/06/01 09:28:10;;;;;;;3.25;1.80;;;30.90;1.00;;;;;;5123859;28;20030;-70
2023/06/01 09:30:45;;;;;;;2.42;1.52;;;29.90;1.00;;;;;;5103811;28;20557;-69
2023/06/01 09:33:20;;;;;;;2.28;1.58;;;30.00;1.00;;;;;;5097056;28;20032;-71
2023/06/01 09:35:56;;;;;;;2.80;1.42;;;29.70;1.00;;;;;;5123178;28;20028;-69
2023/06/01 09:38:33;;;;;;;2.17;1.77;;;29.80;1.00;;;;;;5116492;28;20257;-72
2023/06/01 09:41:04;;;;;;;1.45;1.20;;;30.00;1.00;;;;;;5122559;28;20233;-73
2023/06/01 09:43:36;;;;;;;2.50;1.35;;;30.00;1.00;;;;;;5105392;28;20036;-69
2023/06/01 09:46:14;;;;;;;2.17;1.58;;;30.40;1.00;;;;;;5141248;28;20039;-70
2023/06/01 09:48:46;;;;;;;2.72;1.20;;;30.50;1.00;;;;;;5113908;28;20035;-70
2023/06/01 09:51:29;;;;;;;3.17;1.48;;;29.80;1.00;;;;;;5162026;28;20556;-68
2023/06/01 09:54:03;;;;;;;3.83;1.65;;;29.60;1.00;;;;;;5109020;28;20035;-68
2023/06/01 09:56:44;;;;;;;2.13;1.35;;;30.50;1.00;;;;;;5142236;28;20335;-69
2023/06/01 09:59:16;;;;;;;4.88;1.67;;;30.80;1.00;;;;;;5093828;28;20360;-68
2023/06/01 10:01:56;;;;;;;3.88;1.20;;;30.70;1.00;;;;;;5110592;28;20468;-69
2023/06/01 10:04:32;;;;;;;1.13;1.00;;;30.80;1.00;;;;;;5100233;28;20066;-69
2023/06/01 10:07:06;;;;;;;2.40;1.52;;;30.40;1.00;;;;;;5151542;28;20035;-69
2023/06/01 10:09:39;;;;;;;1.63;1.40;;;30.70;1.00;;;;;;5106981;28;20251;-66
2023/06/01 10:12:13;;;;;;;1.10;1.00;;;30.40;1.00;;;;;;5127276;28;20027;-68
2023/06/01 10:14:47;;;;;;;3.03;1.10;;;30.50;1.00;;;;;;5120715;28;20043;-69
2023/06/01 10:17:22;;;;;;;2.65;1.20;;;30.80;1.00;;;;;;5111387;28;20031;-67
2023/06/01 10:19:55;;;;;;;1.35;1.00;;;30.70;1.00;;;;;;5113036;28;20037;-69
2023/06/01 10:22:28;;;;;;;2.85;1.50;;;30.70;1.00;;;;;;5143131;28;20047;-69
2023/06/01 10:25:03;;;;;;;2.67;1.50;;;31.10;21.50;;;;;;5138944;28;20058;-69
2023/06/01 10:27:44;;;;;;;2.80;2.00;;;30.70;1.00;;;;;;5144478;28;20043;-69
2023/06/01 10:30:15;;;;;;;2.63;1.73;;;31.20;2.70;;;;;;5083846;28;20034;-69
2023/06/01 10:32:48;;;;;;;3.47;1.70;;;31.80;1.00;;;;;;5147921;28;20239;-70
2023/06/01 10:35:28;;;;;;;2.47;1.33;;;33.30;3.00;;;;;;5135718;28;20428;-67
2023/06/01 10:38:17;;;;;;;1.50;1.40;;;34.50;39.70;;;;;;5130115;28;20039;-71
2023/06/01 10:40:50;;;;;;;1.35;1.25;;;34.80;15.40;;;;;;5129602;28;20039;-69
2023/06/01 10:43:40;;;;;;;1.70;1.23;;;35.40;1.00;;;;;;5119808;28;20030;-69
2023/06/01 10:46:33;;;;;;;2.35;1.52;;;35.30;1.00;;;;;;5097768;28;20022;-70
2023/06/01 10:49:06;;;;;;;1.88;1.50;;;35.70;99.90;;;;;;5129156;28;20031;-70
2023/06/01 10:51:38;;;;;;;1.55;1.45;;;35.40;99.90;;;;;;5111857;29;20046;-67
2023/06/01 10:54:34;;;;;;;2.65;1.58;;;36.70;99.90;;;;;;5154624;28;20029;-69
2023/06/01 10:57:22;;;;;;;1.60;1.50;;;37.50;99.90;;;;;;5130571;28;20027;-68
2023/06/01 11:00:20;;;;;;;4.65;1.90;;;36.70;99.90;;;;;;5124563;28;20031;-69
2023/06/01 11:03:05;;;;;;;2.55;1.67;;;36.50;99.90;;;;;;5104484;28;20046;-67
2023/06/01 11:05:47;;;;;;;1.65;1.55;;;37.30;99.90;;;;;;5064426;28;20826;-70
2023/06/01 11:08:22;;;;;;;2.28;1.83;;;38.70;99.90;;;;;;5122059;28;20045;-69
2023/06/01 11:10:55;;;;;;;3.15;1.70;;;39.30;99.90;;;;;;5121166;28;20039;-71
2023/06/01 11:13:34;;;;;;;7.88;2.10;;;40.00;99.90;;;;;;5112398;28;20584;-70
2023/06/01 11:16:18;;;;;;;2.42;1.63;;;40.60;99.90;;;;;;5153334;28;20652;-69
2023/06/01 11:19:00;;;;;;;2.35;1.70;;;40.60;99.90;;;;;;5100114;28;20035;-69
2023/06/01 11:21:36;;;;;;;3.88;1.90;;;40.20;99.90;;;;;;5132800;28;20043;-70
2023/06/01 11:24:13;;;;;;;2.30;1.88;;;40.60;99.90;;;;;;5107973;28;20031;-69
2023/06/01 11:26:46;;;;;;;3.15;1.88;;;40.70;99.90;;;;;;5112368;28;20035;-70
2023/06/01 11:29:26;;;;;;;4.97;1.93;;;40.70;99.90;;;;;;5095096;28;20368;-70
2023/06/01 11:31:59;;;;;;;1.75;1.65;;;41.00;99.90;;;;;;5126557;28;20332;-68
2023/06/01 11:34:41;;;;;;;2.17;1.92;;;40.30;99.90;;;;;;5111644;28;20031;-67
2023/06/01 11:37:25;;;;;;;1.77;1.50;;;40.00;99.90;;;;;;5122923;28;20027;-69
2023/06/01 11:40:10;;;;;;;3.30;1.88;;;39.60;99.90;;;;;;5140156;28;20348;-69
2023/06/01 11:42:42;;;;;;;2.35;1.70;;;38.60;99.90;;;;;;5107726;28;20030;-73
2023/06/01 11:45:20;;;;;;;1.85;1.58;;;38.90;99.90;;;;;;5110863;29;20469;-70
2023/06/01 11:47:53;;;;;;;1.95;1.65;;;38.10;99.90;;;;;;5130126;28;20035;-68
2023/06/01 11:50:26;;;;;;;3.03;1.95;;;38.60;99.90;;;;;;5133354;28;20033;-69
2023/06/01 11:53:00;;;;;;;4.25;1.60;;;39.70;1.00;;;;;;5135463;28;20058;-70
2023/06/01 11:55:34;;;;;;;2.50;1.83;;;39.20;1.00;;;;;;5121358;28;20032;-71
2023/06/01 11:58:06;;;;;;;2.75;2.05;;;38.90;99.90;;;;;;5099049;28;20023;-68
2023/06/01 12:00:40;;;;;;;3.42;1.73;;;39.10;1.00;;;;;;5142470;28;20042;-69
2023/06/01 12:03:11;;;;;;;2.75;2.17;;;39.60;99.90;;;;;;5094496;28;20500;-69
2023/06/01 12:05:49;;;;;;;3.05;2.13;;;39.50;1.00;;;;;;5107953;28;20059;-69
2023/06/01 12:08:23;;;;;;;3.63;2.00;;;38.40;1.00;;;;;;5148594;28;20026;-70
2023/06/01 12:10:56;;;;;;;2.63;2.15;;;37.90;99.90;;;;;;5125311;28;20031;-70
2023/06/01 12:13:28;;;;;;;3.42;1.83;;;37.90;99.90;;;;;;5109486;28;20038;-69
2023/06/01 12:16:00;;;;;;;2.23;1.90;;;38.10;99.90;;;;;;5135327;28;20237;-69
2023/06/01 12:18:31;;;;;;;2.30;1.63;;;38.60;99.90;;;;;;5140200;28;20035;-68
2023/06/01 12:21:13;;;;;;;3.35;1.77;;;38.90;1.00;;;;;;5128939;28;20520;-71
2023/06/01 12:23:53;;;;;;;2.47;1.83;;;38.90;1.00;;;;;;5177116;28;20039;-69
2023/06/01 12:26:35;;;;;;;2.88;1.55;;;38.80;1.00;;;;;;5112362;28;20041;-70
2023/06/01 12:29:12;;;;;;;1.80;1.48;;;38.50;1.00;;;;;;5106094;28;20038;-71
2023/06/01 12:31:55;;;;;;;2.40;2.00;;;40.00;1.00;;;;;;5109557;28;20044;-70
2023/06/01 12:34:27;;;;;;;2.20;2.00;;;41.10;1.00;;;;;;5124883;28;20241;-70
2023/06/01 12:36:58;;;;;;;5.68;2.00;;;42.60;1.00;;;;;;5133751;28;20027;-69
2023/06/01 12:39:36;;;;;;;2.08;1.88;;;42.50;1.00;;;;;;5116611;28;20039;-70
2023/06/01 12:42:09;;;;;;;2.72;2.17;;;42.00;1.00;;;;;;5125889;28;20454;-72
2023/06/01 12:44:41;;;;;;;2.88;2.28;;;41.10;1.00;;;;;;5124640;28;20080;-70
2023/06/01 12:47:16;;;;;;;3.78;2.25;;;41.60;1.00;;;;;;5096911;28;20045;-69
2023/06/01 12:50:08;;;;;;;2.75;1.88;;;40.70;1.00;;;;;;5113806;28;20028;-70
2023/06/01 12:52:42;;;;;;;2.50;1.80;;;40.00;1.00;;;;;;5140577;28;20039;-69
2023/06/01 12:55:14;;;;;;;2.65;2.30;;;40.10;1.00;;;;;;5186803;28;20071;-70
2023/06/01 12:57:53;;;;;;;2.33;1.90;;;39.80;99.90;;;;;;5129916;28;20054;-69
2023/06/01 13:00:26;;;;;;;2.30;1.70;;;38.30;99.90;;;;;;5122012;28;20031;-68
2023/06/01 13:02:58;;;;;;;1.85;1.65;;;38.80;99.90;;;;;;5135030;28;20039;-69
2023/06/01 13:05:29;;;;;;;2.05;1.75;;;38.80;99.90;;;;;;5126396;28;20258;-69
2023/06/01 13:08:02;;;;;;;2.35;1.90;;;39.30;99.90;;;;;;5092442;28;20031;-71
2023/06/01 13:10:33;;;;;;;4.13;1.85;;;38.60;99.90;;;;;;5124131;28;20039;-68
2023/06/01 13:13:07;;;;;;;2.35;1.83;;;36.80;99.90;;;;;;5113467;28;20034;-70
2023/06/01 13:15:42;;;;;;;3.88;2.42;;;37.40;99.90;;;;;;5141215;28;20027;-69
2023/06/01 13:18:13;;;;;;;1.80;1.70;;;38.50;99.90;;;;;;5113005;28;20035;-68
2023/06/01 13:20:45;;;;;;;2.38;2.08;;;39.50;99.90;;;;;;5130616;28;20072;-71
2023/06/01 13:23:17;;;;;;;2.08;1.95;;;40.10;99.90;;;;;;5136632;28;20339;-69
2023/06/01 13:25:48;;;;;;;2.38;2.17;;;40.50;99.90;;;;;;5112284;28;20035;-69
2023/06/01 13:28:19;;;;;;;2.30;1.92;;;40.80;99.90;;;;;;5112242;28;20049;-69
2023/06/01 13:30:54;;;;;;;2.55;2.00;;;40.20;99.90;;;;;;5109191;28;20041;-69
2023/06/01 13:33:26;;;;;;;2.20;1.73;;;39.90;99.90;;;;;;5138620;28;20045;-72